sensor_id;sensor_type;location;lat;lon;timestamp;P1;durP1;ratioP1;P2;durP2;ratioP2
59880;SDS011;45751;51.380;10.326;2022-12-07T00:01:43;8.52;;;3.03;;
59880;SDS011;45751;51.380;10.326;2022-12-07T00:04:14;8.68;;;3.50;;
59880;SDS011;45751;51.380;10.326;2022-12-07T00:06:44;9.82;;;3.65;;
59880;SDS011;45751;51.380;10.326;2022-12-07T00:09:13;7.65;;;2.35;;
59880;SDS011;45751;51.380;10.326;2022-12-07T00:11:41;9.98;;;3.25;;
59880;SDS011;45751;51.380;10.326;2022-12-07T00:14:12;10.27;;;3.72;;
59880;SDS011;45751;51.380;10.326;2022-12-07T00:16:40;6.63;;;2.95;;
59880;SDS011;45751;51.380;10.326;2022-12-07T00:19:10;8.07;;;3.08;;
59880;SDS011;45751;51.380;10.326;2022-12-07T00:21:38;9.10;;;3.53;;
59880;SDS011;45751;51.380;10.326;2022-12-07T00:24:07;5.78;;;2.88;;
59880;SDS011;45751;51.380;10.326;2022-12-07T00:26:35;8.13;;;3.67;;
59880;SDS011;45751;51.380;10.326;2022-12-07T00:29:26;8.68;;;3.13;;
59880;SDS011;45751;51.380;10.326;2022-12-07T00:31:52;11.65;;;3.67;;
59880;SDS011;45751;51.380;10.326;2022-12-07T00:34:20;10.88;;;2.88;;
59880;SDS011;45751;51.380;10.326;2022-12-07T00:36:50;8.02;;;4.13;;
59880;SDS011;45751;51.380;10.326;2022-12-07T00:39:18;8.80;;;3.47;;
59880;SDS011;45751;51.380;10.326;2022-12-07T00:41:46;9.52;;;3.28;;
59880;SDS011;45751;51.380;10.326;2022-12-07T00:44:16;8.63;;;3.33;;
59880;SDS011;45751;51.380;10.326;2022-12-07T00:46:42;9.35;;;3.47;;
59880;SDS011;45751;51.380;10.326;2022-12-07T00:49:15;9.55;;;2.75;;
59880;SDS011;45751;51.380;10.326;2022-12-07T00:51:41;7.90;;;3.42;;
59880;SDS011;45751;51.380;10.326;2022-12-07T00:54:10;7.72;;;2.55;;
59880;SDS011;45751;51.380;10.326;2022-12-07T00:56:36;7.57;;;2.22;;
59880;SDS011;45751;51.380;10.326;2022-12-07T00:59:06;8.43;;;3.35;;
59880;SDS011;45751;51.380;10.326;2022-12-07T01:01:34;9.52;;;3.88;;
59880;SDS011;45751;51.380;10.326;2022-12-07T01:04:02;6.47;;;2.50;;
59880;SDS011;45751;51.380;10.326;2022-12-07T01:06:33;7.90;;;3.08;;
59880;SDS011;45751;51.380;10.326;2022-12-07T01:09:01;8.20;;;2.85;;
59880;SDS011;45751;51.380;10.326;2022-12-07T01:11:30;8.45;;;3.72;;
59880;SDS011;45751;51.380;10.326;2022-12-07T01:13:57;8.00;;;2.85;;
59880;SDS011;45751;51.380;10.326;2022-12-07T01:16:28;10.30;;;4.05;;
59880;SDS011;45751;51.380;10.326;2022-12-07T01:18:58;8.68;;;3.30;;
59880;SDS011;45751;51.380;10.326;2022-12-07T01:21:31;8.88;;;3.35;;
59880;SDS011;45751;51.380;10.326;2022-12-07T01:24:08;6.95;;;2.60;;
59880;SDS011;45751;51.380;10.326;2022-12-07T01:26:36;9.00;;;3.15;;
59880;SDS011;45751;51.380;10.326;2022-12-07T01:29:04;7.55;;;2.58;;
59880;SDS011;45751;51.380;10.326;2022-12-07T01:31:31;9.13;;;3.35;;
59880;SDS011;45751;51.380;10.326;2022-12-07T01:34:00;9.23;;;3.13;;
59880;SDS011;45751;51.380;10.326;2022-12-07T01:36:33;9.65;;;2.83;;
59880;SDS011;45751;51.380;10.326;2022-12-07T01:39:04;4.90;;;2.00;;
59880;SDS011;45751;51.380;10.326;2022-12-07T01:41:35;7.00;;;2.13;;
59880;SDS011;45751;51.380;10.326;2022-12-07T01:47:02;6.28;;;2.15;;
59880;SDS011;45751;51.380;10.326;2022-12-07T01:49:37;5.95;;;2.22;;
59880;SDS011;45751;51.380;10.326;2022-12-07T01:52:18;4.20;;;1.63;;
59880;SDS011;45751;51.380;10.326;2022-12-07T01:54:51;8.70;;;2.47;;
59880;SDS011;45751;51.380;10.326;2022-12-07T01:57:21;7.80;;;3.15;;
59880;SDS011;45751;51.380;10.326;2022-12-07T01:59:51;3.95;;;1.50;;
59880;SDS011;45751;51.380;10.326;2022-12-07T02:05:20;6.57;;;1.90;;
59880;SDS011;45751;51.380;10.326;2022-12-07T02:07:50;7.97;;;2.47;;
59880;SDS011;45751;51.380;10.326;2022-12-07T02:10:22;6.28;;;2.58;;
59880;SDS011;45751;51.380;10.326;2022-12-07T02:13:01;4.60;;;1.58;;
59880;SDS011;45751;51.380;10.326;2022-12-07T02:20:58;5.85;;;1.42;;
59880;SDS011;45751;51.380;10.326;2022-12-07T02:23:47;5.38;;;2.03;;
59880;SDS011;45751;51.380;10.326;2022-12-07T02:26:42;5.88;;;2.53;;
59880;SDS011;45751;51.380;10.326;2022-12-07T02:29:30;4.97;;;1.65;;
59880;SDS011;45751;51.380;10.326;2022-12-07T02:32:06;4.07;;;1.38;;
59880;SDS011;45751;51.380;10.326;2022-12-07T02:34:44;4.97;;;1.20;;
59880;SDS011;45751;51.380;10.326;2022-12-07T02:37:42;4.30;;;1.65;;
59880;SDS011;45751;51.380;10.326;2022-12-07T02:40:11;5.80;;;2.08;;
59880;SDS011;45751;51.380;10.326;2022-12-07T02:42:47;6.20;;;1.67;;
59880;SDS011;45751;51.380;10.326;2022-12-07T02:45:21;5.57;;;2.00;;
59880;SDS011;45751;51.380;10.326;2022-12-07T02:47:55;3.63;;;1.15;;
59880;SDS011;45751;51.380;10.326;2022-12-07T02:52:53;5.63;;;2.45;;
59880;SDS011;45751;51.380;10.326;2022-12-07T02:55:22;3.47;;;1.38;;
59880;SDS011;45751;51.380;10.326;2022-12-07T02:57:57;5.20;;;1.73;;
59880;SDS011;45751;51.380;10.326;2022-12-07T03:00:36;6.80;;;2.10;;
59880;SDS011;45751;51.380;10.326;2022-12-07T03:03:14;6.77;;;2.80;;
59880;SDS011;45751;51.380;10.326;2022-12-07T03:11:05;4.30;;;1.40;;
59880;SDS011;45751;51.380;10.326;2022-12-07T03:13:47;7.93;;;2.58;;
59880;SDS011;45751;51.380;10.326;2022-12-07T03:16:22;5.72;;;2.78;;
59880;SDS011;45751;51.380;10.326;2022-12-07T03:18:54;8.35;;;2.88;;
59880;SDS011;45751;51.380;10.326;2022-12-07T03:21:33;6.57;;;2.60;;
59880;SDS011;45751;51.380;10.326;2022-12-07T03:24:07;10.15;;;3.22;;
59880;SDS011;45751;51.380;10.326;2022-12-07T03:26:44;5.45;;;2.33;;
59880;SDS011;45751;51.380;10.326;2022-12-07T03:29:20;5.28;;;1.95;;
59880;SDS011;45751;51.380;10.326;2022-12-07T03:31:59;7.07;;;2.75;;
59880;SDS011;45751;51.380;10.326;2022-12-07T03:35:05;8.38;;;3.20;;
59880;SDS011;45751;51.380;10.326;2022-12-07T03:37:43;6.43;;;2.88;;
59880;SDS011;45751;51.380;10.326;2022-12-07T03:40:33;6.15;;;2.35;;
59880;SDS011;45751;51.380;10.326;2022-12-07T03:43:04;6.72;;;2.08;;
59880;SDS011;45751;51.380;10.326;2022-12-07T03:48:54;7.27;;;2.93;;
59880;SDS011;45751;51.380;10.326;2022-12-07T03:51:39;5.13;;;1.90;;
59880;SDS011;45751;51.380;10.326;2022-12-07T03:58:22;3.90;;;1.85;;
59880;SDS011;45751;51.380;10.326;2022-12-07T04:03:20;7.30;;;3.20;;
59880;SDS011;45751;51.380;10.326;2022-12-07T04:05:47;7.85;;;2.35;;
59880;SDS011;45751;51.380;10.326;2022-12-07T04:08:16;6.80;;;3.47;;
59880;SDS011;45751;51.380;10.326;2022-12-07T04:10:44;7.63;;;2.85;;
59880;SDS011;45751;51.380;10.326;2022-12-07T04:13:11;12.00;;;3.08;;
59880;SDS011;45751;51.380;10.326;2022-12-07T04:18:09;7.55;;;3.25;;
59880;SDS011;45751;51.380;10.326;2022-12-07T04:20:37;6.18;;;2.40;;
59880;SDS011;45751;51.380;10.326;2022-12-07T04:23:05;7.10;;;2.55;;
59880;SDS011;45751;51.380;10.326;2022-12-07T04:25:32;8.52;;;2.60;;
59880;SDS011;45751;51.380;10.326;2022-12-07T04:27:59;7.40;;;2.65;;
59880;SDS011;45751;51.380;10.326;2022-12-07T04:30:29;6.43;;;3.13;;
59880;SDS011;45751;51.380;10.326;2022-12-07T04:32:56;5.63;;;2.75;;
59880;SDS011;45751;51.380;10.326;2022-12-07T04:35:23;8.80;;;3.65;;
59880;SDS011;45751;51.380;10.326;2022-12-07T04:37:51;8.63;;;2.45;;
59880;SDS011;45751;51.380;10.326;2022-12-07T04:40:18;6.10;;;2.55;;
59880;SDS011;45751;51.380;10.326;2022-12-07T04:42:45;10.13;;;4.10;;
59880;SDS011;45751;51.380;10.326;2022-12-07T04:45:14;8.73;;;2.90;;
59880;SDS011;45751;51.380;10.326;2022-12-07T04:47:42;7.43;;;3.55;;
59880;SDS011;45751;51.380;10.326;2022-12-07T04:50:09;8.57;;;3.60;;
59880;SDS011;45751;51.380;10.326;2022-12-07T04:52:39;6.93;;;3.20;;
59880;SDS011;45751;51.380;10.326;2022-12-07T04:55:07;10.50;;;3.63;;
59880;SDS011;45751;51.380;10.326;2022-12-07T04:57:34;7.38;;;3.17;;
59880;SDS011;45751;51.380;10.326;2022-12-07T05:00:02;8.18;;;4.22;;
59880;SDS011;45751;51.380;10.326;2022-12-07T05:02:32;9.02;;;4.43;;
59880;SDS011;45751;51.380;10.326;2022-12-07T05:04:59;10.88;;;3.85;;
59880;SDS011;45751;51.380;10.326;2022-12-07T05:07:26;9.65;;;3.80;;
59880;SDS011;45751;51.380;10.326;2022-12-07T05:09:55;10.85;;;3.85;;
59880;SDS011;45751;51.380;10.326;2022-12-07T05:12:22;8.07;;;3.45;;
59880;SDS011;45751;51.380;10.326;2022-12-07T05:14:49;13.10;;;4.95;;
59880;SDS011;45751;51.380;10.326;2022-12-07T05:17:17;12.75;;;4.45;;
59880;SDS011;45751;51.380;10.326;2022-12-07T05:19:45;11.60;;;4.47;;
59880;SDS011;45751;51.380;10.326;2022-12-07T05:22:12;8.20;;;4.13;;
59880;SDS011;45751;51.380;10.326;2022-12-07T05:24:39;10.45;;;4.07;;
59880;SDS011;45751;51.380;10.326;2022-12-07T05:27:07;16.92;;;3.38;;
59880;SDS011;45751;51.380;10.326;2022-12-07T05:29:34;8.98;;;4.18;;
59880;SDS011;45751;51.380;10.326;2022-12-07T05:32:01;13.00;;;4.57;;
59880;SDS011;45751;51.380;10.326;2022-12-07T05:34:29;13.45;;;3.92;;
59880;SDS011;45751;51.380;10.326;2022-12-07T05:36:56;11.93;;;5.78;;
59880;SDS011;45751;51.380;10.326;2022-12-07T05:39:24;10.05;;;3.10;;
59880;SDS011;45751;51.380;10.326;2022-12-07T05:41:51;8.82;;;4.40;;
59880;SDS011;45751;51.380;10.326;2022-12-07T05:44:40;8.45;;;3.20;;
59880;SDS011;45751;51.380;10.326;2022-12-07T05:47:09;7.78;;;3.97;;
59880;SDS011;45751;51.380;10.326;2022-12-07T05:49:36;13.38;;;4.30;;
59880;SDS011;45751;51.380;10.326;2022-12-07T05:52:05;11.90;;;4.15;;
59880;SDS011;45751;51.380;10.326;2022-12-07T05:54:33;10.68;;;3.75;;
59880;SDS011;45751;51.380;10.326;2022-12-07T05:57:00;9.88;;;4.18;;
59880;SDS011;45751;51.380;10.326;2022-12-07T05:59:27;5.05;;;2.58;;
59880;SDS011;45751;51.380;10.326;2022-12-07T06:01:58;14.52;;;4.53;;
59880;SDS011;45751;51.380;10.326;2022-12-07T06:04:33;13.48;;;4.82;;
59880;SDS011;45751;51.380;10.326;2022-12-07T06:07:01;15.55;;;6.13;;
59880;SDS011;45751;51.380;10.326;2022-12-07T06:09:29;11.32;;;3.50;;
59880;SDS011;45751;51.380;10.326;2022-12-07T06:11:58;11.15;;;4.15;;
59880;SDS011;45751;51.380;10.326;2022-12-07T06:14:46;9.18;;;4.53;;
59880;SDS011;45751;51.380;10.326;2022-12-07T06:17:12;18.15;;;7.20;;
59880;SDS011;45751;51.380;10.326;2022-12-07T06:19:39;11.27;;;5.25;;
59880;SDS011;45751;51.380;10.326;2022-12-07T06:22:09;14.90;;;5.78;;
59880;SDS011;45751;51.380;10.326;2022-12-07T06:24:39;11.27;;;4.68;;
59880;SDS011;45751;51.380;10.326;2022-12-07T06:27:06;11.27;;;4.90;;
59880;SDS011;45751;51.380;10.326;2022-12-07T06:29:35;10.73;;;4.75;;
59880;SDS011;45751;51.380;10.326;2022-12-07T06:32:02;10.95;;;4.00;;
59880;SDS011;45751;51.380;10.326;2022-12-07T06:34:31;10.25;;;3.42;;
59880;SDS011;45751;51.380;10.326;2022-12-07T06:36:58;17.33;;;5.40;;
59880;SDS011;45751;51.380;10.326;2022-12-07T06:39:26;9.20;;;3.47;;
59880;SDS011;45751;51.380;10.326;2022-12-07T06:41:55;10.15;;;5.05;;
59880;SDS011;45751;51.380;10.326;2022-12-07T06:44:24;9.57;;;3.78;;
59880;SDS011;45751;51.380;10.326;2022-12-07T06:46:51;10.70;;;4.25;;
59880;SDS011;45751;51.380;10.326;2022-12-07T06:49:40;10.40;;;3.30;;
59880;SDS011;45751;51.380;10.326;2022-12-07T06:52:06;8.68;;;2.90;;
59880;SDS011;45751;51.380;10.326;2022-12-07T06:54:34;10.25;;;4.28;;
59880;SDS011;45751;51.380;10.326;2022-12-07T06:57:01;12.18;;;5.50;;
59880;SDS011;45751;51.380;10.326;2022-12-07T06:59:31;10.82;;;4.20;;
59880;SDS011;45751;51.380;10.326;2022-12-07T07:01:57;14.27;;;4.80;;
59880;SDS011;45751;51.380;10.326;2022-12-07T07:04:24;12.38;;;5.18;;
59880;SDS011;45751;51.380;10.326;2022-12-07T07:06:53;13.52;;;5.13;;
59880;SDS011;45751;51.380;10.326;2022-12-07T07:09:25;8.57;;;4.10;;
59880;SDS011;45751;51.380;10.326;2022-12-07T07:11:53;10.57;;;4.18;;
59880;SDS011;45751;51.380;10.326;2022-12-07T07:14:20;9.15;;;3.85;;
59880;SDS011;45751;51.380;10.326;2022-12-07T07:16:51;8.63;;;3.35;;
59880;SDS011;45751;51.380;10.326;2022-12-07T07:19:18;7.35;;;3.08;;
59880;SDS011;45751;51.380;10.326;2022-12-07T07:21:47;6.72;;;2.72;;
59880;SDS011;45751;51.380;10.326;2022-12-07T07:24:14;11.95;;;5.05;;
59880;SDS011;45751;51.380;10.326;2022-12-07T07:26:44;9.18;;;2.85;;
59880;SDS011;45751;51.380;10.326;2022-12-07T07:29:11;10.48;;;4.50;;
59880;SDS011;45751;51.380;10.326;2022-12-07T07:31:37;12.80;;;2.92;;
59880;SDS011;45751;51.380;10.326;2022-12-07T07:34:06;7.50;;;2.63;;
59880;SDS011;45751;51.380;10.326;2022-12-07T07:36:33;8.20;;;3.60;;
59880;SDS011;45751;51.380;10.326;2022-12-07T07:39:02;8.25;;;3.20;;
59880;SDS011;45751;51.380;10.326;2022-12-07T07:41:32;8.90;;;2.88;;
59880;SDS011;45751;51.380;10.326;2022-12-07T07:44:01;9.27;;;2.20;;
59880;SDS011;45751;51.380;10.326;2022-12-07T07:46:27;10.73;;;2.47;;
59880;SDS011;45751;51.380;10.326;2022-12-07T07:48:56;8.48;;;3.25;;
59880;SDS011;45751;51.380;10.326;2022-12-07T07:51:22;9.07;;;3.28;;
59880;SDS011;45751;51.380;10.326;2022-12-07T07:53:51;9.88;;;3.35;;
59880;SDS011;45751;51.380;10.326;2022-12-07T07:56:18;6.93;;;2.67;;
59880;SDS011;45751;51.380;10.326;2022-12-07T07:58:44;14.48;;;3.60;;
59880;SDS011;45751;51.380;10.326;2022-12-07T08:01:12;7.53;;;2.58;;
59880;SDS011;45751;51.380;10.326;2022-12-07T08:03:41;7.43;;;2.95;;
59880;SDS011;45751;51.380;10.326;2022-12-07T08:06:09;14.65;;;3.22;;
59880;SDS011;45751;51.380;10.326;2022-12-07T08:08:36;6.30;;;2.40;;
59880;SDS011;45751;51.380;10.326;2022-12-07T08:11:05;5.22;;;2.55;;
59880;SDS011;45751;51.380;10.326;2022-12-07T08:13:33;7.55;;;3.65;;
59880;SDS011;45751;51.380;10.326;2022-12-07T08:16:03;8.38;;;3.03;;
59880;SDS011;45751;51.380;10.326;2022-12-07T08:18:38;5.78;;;2.50;;
59880;SDS011;45751;51.380;10.326;2022-12-07T08:21:08;9.85;;;3.00;;
59880;SDS011;45751;51.380;10.326;2022-12-07T08:23:37;6.33;;;2.43;;
59880;SDS011;45751;51.380;10.326;2022-12-07T08:26:07;7.00;;;2.75;;
59880;SDS011;45751;51.380;10.326;2022-12-07T08:28:43;10.98;;;3.10;;
59880;SDS011;45751;51.380;10.326;2022-12-07T08:31:12;6.65;;;2.22;;
59880;SDS011;45751;51.380;10.326;2022-12-07T08:33:46;6.38;;;2.15;;
59880;SDS011;45751;51.380;10.326;2022-12-07T08:36:14;7.10;;;2.72;;
59880;SDS011;45751;51.380;10.326;2022-12-07T08:38:46;7.53;;;3.05;;
59880;SDS011;45751;51.380;10.326;2022-12-07T08:41:33;5.38;;;2.40;;
59880;SDS011;45751;51.380;10.326;2022-12-07T08:44:01;9.70;;;2.10;;
59880;SDS011;45751;51.380;10.326;2022-12-07T08:46:33;12.25;;;2.70;;
59880;SDS011;45751;51.380;10.326;2022-12-07T08:49:09;8.70;;;3.72;;
59880;SDS011;45751;51.380;10.326;2022-12-07T08:51:47;8.27;;;2.20;;
59880;SDS011;45751;51.380;10.326;2022-12-07T08:54:15;6.53;;;2.70;;
59880;SDS011;45751;51.380;10.326;2022-12-07T08:56:46;4.15;;;1.90;;
59880;SDS011;45751;51.380;10.326;2022-12-07T08:59:25;8.07;;;2.58;;
59880;SDS011;45751;51.380;10.326;2022-12-07T09:01:53;3.90;;;1.73;;
59880;SDS011;45751;51.380;10.326;2022-12-07T09:04:20;6.53;;;2.17;;
59880;SDS011;45751;51.380;10.326;2022-12-07T09:06:48;5.63;;;2.03;;
59880;SDS011;45751;51.380;10.326;2022-12-07T09:09:15;11.00;;;2.60;;
59880;SDS011;45751;51.380;10.326;2022-12-07T09:11:43;5.90;;;2.53;;
59880;SDS011;45751;51.380;10.326;2022-12-07T09:14:11;7.47;;;2.30;;
59880;SDS011;45751;51.380;10.326;2022-12-07T09:16:40;10.07;;;2.58;;
59880;SDS011;45751;51.380;10.326;2022-12-07T09:19:08;4.88;;;2.10;;
59880;SDS011;45751;51.380;10.326;2022-12-07T09:21:35;5.68;;;2.03;;
59880;SDS011;45751;51.380;10.326;2022-12-07T09:24:03;5.03;;;2.33;;
59880;SDS011;45751;51.380;10.326;2022-12-07T09:26:30;6.68;;;2.80;;
59880;SDS011;45751;51.380;10.326;2022-12-07T09:28:57;5.93;;;1.88;;
59880;SDS011;45751;51.380;10.326;2022-12-07T09:31:25;4.85;;;1.85;;
59880;SDS011;45751;51.380;10.326;2022-12-07T09:33:57;9.00;;;2.13;;
59880;SDS011;45751;51.380;10.326;2022-12-07T09:36:26;6.45;;;1.75;;
59880;SDS011;45751;51.380;10.326;2022-12-07T09:38:54;5.63;;;2.97;;
59880;SDS011;45751;51.380;10.326;2022-12-07T09:41:22;5.43;;;2.10;;
59880;SDS011;45751;51.380;10.326;2022-12-07T09:43:56;10.82;;;2.53;;
59880;SDS011;45751;51.380;10.326;2022-12-07T09:46:36;7.38;;;2.30;;
59880;SDS011;45751;51.380;10.326;2022-12-07T09:49:08;8.10;;;2.28;;
59880;SDS011;45751;51.380;10.326;2022-12-07T09:51:40;7.35;;;2.55;;
59880;SDS011;45751;51.380;10.326;2022-12-07T09:54:07;6.20;;;2.10;;
59880;SDS011;45751;51.380;10.326;2022-12-07T09:56:37;8.80;;;2.72;;
59880;SDS011;45751;51.380;10.326;2022-12-07T09:59:05;5.15;;;1.38;;
59880;SDS011;45751;51.380;10.326;2022-12-07T10:04:12;4.65;;;1.88;;
59880;SDS011;45751;51.380;10.326;2022-12-07T10:06:43;5.43;;;2.15;;
59880;SDS011;45751;51.380;10.326;2022-12-07T10:09:10;8.90;;;2.50;;
59880;SDS011;45751;51.380;10.326;2022-12-07T10:14:29;6.47;;;1.98;;
59880;SDS011;45751;51.380;10.326;2022-12-07T10:17:30;5.82;;;1.75;;
59880;SDS011;45751;51.380;10.326;2022-12-07T10:20:10;7.00;;;2.67;;
59880;SDS011;45751;51.380;10.326;2022-12-07T10:25:32;5.93;;;1.50;;
59880;SDS011;45751;51.380;10.326;2022-12-07T10:28:08;5.88;;;2.25;;
59880;SDS011;45751;51.380;10.326;2022-12-07T10:35:57;3.20;;;1.08;;
59880;SDS011;45751;51.380;10.326;2022-12-07T10:38:25;3.63;;;1.20;;
59880;SDS011;45751;51.380;10.326;2022-12-07T10:41:03;5.32;;;1.35;;
59880;SDS011;45751;51.380;10.326;2022-12-07T10:43:33;5.25;;;1.80;;
59880;SDS011;45751;51.380;10.326;2022-12-07T10:48:55;4.57;;;1.52;;
59880;SDS011;45751;51.380;10.326;2022-12-07T10:51:46;4.47;;;1.25;;
59880;SDS011;45751;51.380;10.326;2022-12-07T10:57:06;5.35;;;1.55;;
59880;SDS011;45751;51.380;10.326;2022-12-07T11:00:14;8.70;;;1.50;;
59880;SDS011;45751;51.380;10.326;2022-12-07T11:08:05;2.78;;;1.10;;
59880;SDS011;45751;51.380;10.326;2022-12-07T11:13:23;4.18;;;1.33;;
59880;SDS011;45751;51.380;10.326;2022-12-07T11:16:04;4.18;;;1.30;;
59880;SDS011;45751;51.380;10.326;2022-12-07T11:19:06;3.90;;;1.30;;
59880;SDS011;45751;51.380;10.326;2022-12-07T11:24:53;7.00;;;1.88;;
59880;SDS011;45751;51.380;10.326;2022-12-07T11:30:28;5.53;;;1.55;;
59880;SDS011;45751;51.380;10.326;2022-12-07T11:41:46;5.07;;;1.60;;
59880;SDS011;45751;51.380;10.326;2022-12-07T11:46:53;6.20;;;1.55;;
59880;SDS011;45751;51.380;10.326;2022-12-07T11:49:44;4.10;;;1.27;;
59880;SDS011;45751;51.380;10.326;2022-12-07T11:52:47;6.57;;;2.17;;
59880;SDS011;45751;51.380;10.326;2022-12-07T11:55:30;4.93;;;1.23;;
59880;SDS011;45751;51.380;10.326;2022-12-07T12:03:47;3.92;;;1.10;;
59880;SDS011;45751;51.380;10.326;2022-12-07T12:06:31;7.10;;;1.45;;
59880;SDS011;45751;51.380;10.326;2022-12-07T12:18:19;9.98;;;2.33;;
59880;SDS011;45751;51.380;10.326;2022-12-07T12:21:17;4.72;;;1.65;;
59880;SDS011;45751;51.380;10.326;2022-12-07T12:26:48;5.75;;;1.50;;
59880;SDS011;45751;51.380;10.326;2022-12-07T12:32:15;3.15;;;1.30;;
59880;SDS011;45751;51.380;10.326;2022-12-07T12:42:49;7.10;;;1.58;;
59880;SDS011;45751;51.380;10.326;2022-12-07T12:45:19;3.90;;;1.20;;
59880;SDS011;45751;51.380;10.326;2022-12-07T12:47:56;3.50;;;1.20;;
59880;SDS011;45751;51.380;10.326;2022-12-07T12:50:31;5.43;;;1.95;;
59880;SDS011;45751;51.380;10.326;2022-12-07T12:56:00;2.65;;;0.88;;
59880;SDS011;45751;51.380;10.326;2022-12-07T13:01:46;7.40;;;2.20;;
59880;SDS011;45751;51.380;10.326;2022-12-07T13:04:34;4.70;;;1.50;;
59880;SDS011;45751;51.380;10.326;2022-12-07T13:07:47;3.03;;;0.95;;
59880;SDS011;45751;51.380;10.326;2022-12-07T13:10:46;4.07;;;1.33;;
59880;SDS011;45751;51.380;10.326;2022-12-07T13:28:48;5.68;;;2.15;;
59880;SDS011;45751;51.380;10.326;2022-12-07T13:33:56;4.07;;;1.40;;
59880;SDS011;45751;51.380;10.326;2022-12-07T13:36:25;5.72;;;1.05;;
59880;SDS011;45751;51.380;10.326;2022-12-07T13:39:19;2.47;;;0.77;;
59880;SDS011;45751;51.380;10.326;2022-12-07T13:41:55;4.70;;;1.40;;
59880;SDS011;45751;51.380;10.326;2022-12-07T13:44:27;3.53;;;1.05;;
59880;SDS011;45751;51.380;10.326;2022-12-07T13:47:12;9.57;;;1.48;;
59880;SDS011;45751;51.380;10.326;2022-12-07T13:49:55;5.40;;;1.10;;
59880;SDS011;45751;51.380;10.326;2022-12-07T13:52:27;5.05;;;1.27;;
59880;SDS011;45751;51.380;10.326;2022-12-07T13:55:00;5.03;;;1.35;;
59880;SDS011;45751;51.380;10.326;2022-12-07T13:57:32;4.20;;;1.63;;
59880;SDS011;45751;51.380;10.326;2022-12-07T14:00:03;5.20;;;1.02;;
59880;SDS011;45751;51.380;10.326;2022-12-07T14:02:33;5.70;;;1.52;;
59880;SDS011;45751;51.380;10.326;2022-12-07T14:08:00;4.45;;;1.70;;
59880;SDS011;45751;51.380;10.326;2022-12-07T14:10:36;4.13;;;1.85;;
59880;SDS011;45751;51.380;10.326;2022-12-07T14:15:58;4.75;;;1.70;;
59880;SDS011;45751;51.380;10.326;2022-12-07T14:18:40;6.03;;;2.63;;
59880;SDS011;45751;51.380;10.326;2022-12-07T14:23:42;4.25;;;1.27;;
59880;SDS011;45751;51.380;10.326;2022-12-07T14:26:18;9.20;;;4.00;;
59880;SDS011;45751;51.380;10.326;2022-12-07T14:28:50;5.82;;;2.63;;
59880;SDS011;45751;51.380;10.326;2022-12-07T14:31:17;4.68;;;1.60;;
59880;SDS011;45751;51.380;10.326;2022-12-07T14:34:00;4.38;;;0.98;;
59880;SDS011;45751;51.380;10.326;2022-12-07T14:36:27;8.15;;;2.08;;
59880;SDS011;45751;51.380;10.326;2022-12-07T14:38:55;6.93;;;1.98;;
59880;SDS011;45751;51.380;10.326;2022-12-07T14:41:24;3.53;;;1.23;;
59880;SDS011;45751;51.380;10.326;2022-12-07T14:44:11;6.68;;;2.05;;
59880;SDS011;45751;51.380;10.326;2022-12-07T14:46:59;3.47;;;1.13;;
59880;SDS011;45751;51.380;10.326;2022-12-07T14:49:47;5.65;;;1.92;;
59880;SDS011;45751;51.380;10.326;2022-12-07T14:52:24;5.63;;;1.50;;
59880;SDS011;45751;51.380;10.326;2022-12-07T14:55:25;4.20;;;1.55;;
59880;SDS011;45751;51.380;10.326;2022-12-07T14:57:56;14.00;;;2.28;;
59880;SDS011;45751;51.380;10.326;2022-12-07T15:00:23;8.63;;;1.90;;
59880;SDS011;45751;51.380;10.326;2022-12-07T15:02:53;3.67;;;1.43;;
59880;SDS011;45751;51.380;10.326;2022-12-07T15:05:22;8.70;;;2.08;;
59880;SDS011;45751;51.380;10.326;2022-12-07T15:07:49;7.47;;;1.60;;
59880;SDS011;45751;51.380;10.326;2022-12-07T15:10:23;4.97;;;1.73;;
59880;SDS011;45751;51.380;10.326;2022-12-07T15:12:58;8.82;;;1.70;;
59880;SDS011;45751;51.380;10.326;2022-12-07T15:15:49;13.90;;;2.10;;
59880;SDS011;45751;51.380;10.326;2022-12-07T15:18:20;5.00;;;1.98;;
59880;SDS011;45751;51.380;10.326;2022-12-07T15:20:48;8.15;;;2.10;;
59880;SDS011;45751;51.380;10.326;2022-12-07T15:23:15;5.75;;;2.10;;
59880;SDS011;45751;51.380;10.326;2022-12-07T15:25:47;5.07;;;1.58;;
59880;SDS011;45751;51.380;10.326;2022-12-07T15:28:14;7.38;;;2.22;;
59880;SDS011;45751;51.380;10.326;2022-12-07T15:30:43;17.70;;;2.08;;
59880;SDS011;45751;51.380;10.326;2022-12-07T15:33:12;5.63;;;1.65;;
59880;SDS011;45751;51.380;10.326;2022-12-07T15:35:40;6.35;;;2.05;;
59880;SDS011;45751;51.380;10.326;2022-12-07T15:38:07;5.47;;;2.10;;
59880;SDS011;45751;51.380;10.326;2022-12-07T15:40:36;5.38;;;2.75;;
59880;SDS011;45751;51.380;10.326;2022-12-07T15:43:03;11.02;;;1.98;;
59880;SDS011;45751;51.380;10.326;2022-12-07T15:45:31;7.25;;;2.28;;
59880;SDS011;45751;51.380;10.326;2022-12-07T15:48:00;5.47;;;1.95;;
59880;SDS011;45751;51.380;10.326;2022-12-07T15:50:48;8.40;;;2.65;;
59880;SDS011;45751;51.380;10.326;2022-12-07T15:53:15;7.45;;;1.95;;
59880;SDS011;45751;51.380;10.326;2022-12-07T15:55:42;6.20;;;2.25;;
59880;SDS011;45751;51.380;10.326;2022-12-07T15:58:10;6.60;;;2.80;;
59880;SDS011;45751;51.380;10.326;2022-12-07T16:00:40;6.28;;;2.63;;
59880;SDS011;45751;51.380;10.326;2022-12-07T16:03:07;7.65;;;2.20;;
59880;SDS011;45751;51.380;10.326;2022-12-07T16:05:35;6.65;;;2.05;;
59880;SDS011;45751;51.380;10.326;2022-12-07T16:08:02;4.97;;;2.05;;
59880;SDS011;45751;51.380;10.326;2022-12-07T16:10:29;9.05;;;1.92;;
59880;SDS011;45751;51.380;10.326;2022-12-07T16:12:56;6.18;;;2.55;;
59880;SDS011;45751;51.380;10.326;2022-12-07T16:15:24;7.18;;;2.55;;
59880;SDS011;45751;51.380;10.326;2022-12-07T16:17:56;6.20;;;2.35;;
59880;SDS011;45751;51.380;10.326;2022-12-07T16:20:23;7.05;;;2.72;;
59880;SDS011;45751;51.380;10.326;2022-12-07T16:22:51;7.00;;;2.35;;
59880;SDS011;45751;51.380;10.326;2022-12-07T16:25:20;5.13;;;1.88;;
59880;SDS011;45751;51.380;10.326;2022-12-07T16:27:47;5.75;;;2.45;;
59880;SDS011;45751;51.380;10.326;2022-12-07T16:30:14;7.03;;;2.28;;
59880;SDS011;45751;51.380;10.326;2022-12-07T16:32:43;6.88;;;2.38;;
59880;SDS011;45751;51.380;10.326;2022-12-07T16:35:10;9.75;;;3.33;;
59880;SDS011;45751;51.380;10.326;2022-12-07T16:37:41;8.40;;;2.78;;
59880;SDS011;45751;51.380;10.326;2022-12-07T16:40:09;5.82;;;2.50;;
59880;SDS011;45751;51.380;10.326;2022-12-07T16:42:37;11.63;;;2.13;;
59880;SDS011;45751;51.380;10.326;2022-12-07T16:45:04;6.15;;;2.75;;
59880;SDS011;45751;51.380;10.326;2022-12-07T16:47:36;6.28;;;2.13;;
59880;SDS011;45751;51.380;10.326;2022-12-07T16:50:06;13.05;;;1.60;;
59880;SDS011;45751;51.380;10.326;2022-12-07T16:52:35;7.18;;;2.25;;
59880;SDS011;45751;51.380;10.326;2022-12-07T16:55:02;9.55;;;2.22;;
59880;SDS011;45751;51.380;10.326;2022-12-07T16:57:31;7.13;;;2.25;;
59880;SDS011;45751;51.380;10.326;2022-12-07T16:59:59;5.20;;;1.50;;
59880;SDS011;45751;51.380;10.326;2022-12-07T17:02:26;10.18;;;2.30;;
59880;SDS011;45751;51.380;10.326;2022-12-07T17:04:56;7.07;;;2.63;;
59880;SDS011;45751;51.380;10.326;2022-12-07T17:07:23;15.15;;;3.35;;
59880;SDS011;45751;51.380;10.326;2022-12-07T17:09:51;5.85;;;1.85;;
59880;SDS011;45751;51.380;10.326;2022-12-07T17:12:19;6.78;;;2.47;;
59880;SDS011;45751;51.380;10.326;2022-12-07T17:14:47;4.22;;;1.67;;
59880;SDS011;45751;51.380;10.326;2022-12-07T17:17:34;7.90;;;1.80;;
59880;SDS011;45751;51.380;10.326;2022-12-07T17:20:04;7.45;;;2.60;;